Time;durP1;ratioP1;P1;durP2;ratioP2;P2;SDS_P1;SDS_P2;PMS_P1;PMS_P2;Temp;Humidity;BMP_temperature;BMP_pressure;BME280_temperature;BME280_humidity;BME280_pressure;Samples;Min_cycle;Max_cycle;Signal;HPM_P1;HPM_P2
2022/02/13 00:01:10;;;;;;;6.55;3.38;;;14.50;59.40;;;;;;5076777;28;20074;-78
2022/02/13 00:03:36;;;;;;;6.25;3.10;;;14.50;59.40;;;;;;5059125;28;20451;-78
2022/02/13 00:06:02;;;;;;;7.13;3.38;;;14.50;59.40;;;;;;5040745;28;20032;-78
2022/02/13 00:08:28;;;;;;;5.85;3.05;;;14.40;59.30;;;;;;5039755;28;20078;-78
2022/02/13 00:10:53;;;;;;;7.32;3.28;;;14.40;59.50;;;;;;5064692;28;20099;-78
2022/02/13 00:13:19;;;;;;;5.97;2.97;;;14.40;59.40;;;;;;5058752;28;20033;-79
2022/02/13 00:15:44;;;;;;;5.95;3.38;;;14.40;59.40;;;;;;5077149;28;20020;-78
2022/02/13 00:18:10;;;;;;;6.05;3.00;;;14.40;59.50;;;;;;5041828;28;20028;-78
2022/02/13 00:20:35;;;;;;;6.57;3.30;;;14.40;59.50;;;;;;5055159;28;20462;-78
2022/02/13 00:23:01;;;;;;;7.03;3.08;;;14.40;59.50;;;;;;5045065;28;20032;-78
2022/02/13 00:25:28;;;;;;;7.05;3.55;;;14.40;59.60;;;;;;5075719;28;20499;-77
2022/02/13 00:27:53;;;;;;;7.47;3.38;;;14.40;59.50;;;;;;5064373;28;20044;-79
2022/02/13 00:30:19;;;;;;;5.97;2.92;;;14.40;59.60;;;;;;5059125;28;20035;-77
2022/02/13 00:32:45;;;;;;;5.97;2.85;;;14.30;59.50;;;;;;5071518;28;20028;-78
2022/02/13 00:35:12;;;;;;;7.70;3.40;;;14.30;59.50;;;;;;5040713;28;20039;-78
2022/02/13 00:37:38;;;;;;;5.50;2.78;;;14.30;59.40;;;;;;5050373;28;20061;-78
2022/02/13 00:40:04;;;;;;;5.78;3.00;;;14.30;59.40;;;;;;5063131;28;20036;-78
2022/02/13 00:42:30;;;;;;;6.72;3.38;;;14.30;59.50;;;;;;5077079;28;20051;-78
2022/02/13 00:44:55;;;;;;;7.60;3.28;;;14.30;59.50;;;;;;5058437;28;20470;-78
2022/02/13 00:47:21;;;;;;;6.43;3.05;;;14.30;59.30;;;;;;5040760;28;20040;-78
2022/02/13 00:49:46;;;;;;;6.68;3.42;;;14.30;59.50;;;;;;5052744;28;20487;-78
2022/02/13 00:52:12;;;;;;;4.72;2.67;;;14.30;59.50;;;;;;5077690;28;20104;-78
2022/02/13 00:54:38;;;;;;;6.47;3.13;;;14.30;59.40;;;;;;5041613;28;20029;-79
2022/02/13 00:57:04;;;;;;;6.20;3.13;;;14.30;59.40;;;;;;5066219;28;20024;-79
2022/02/13 00:59:30;;;;;;;6.60;3.10;;;14.30;59.50;;;;;;5076657;28;20134;-78
2022/02/13 01:01:56;;;;;;;6.22;3.10;;;14.30;59.40;;;;;;5051640;28;20117;-78
2022/02/13 01:04:21;;;;;;;6.05;2.97;;;14.30;59.50;;;;;;5059171;28;20470;-79
2022/02/13 01:06:47;;;;;;;6.97;3.42;;;14.30;59.60;;;;;;5059674;28;20028;-78
2022/02/13 01:09:12;;;;;;;5.45;2.90;;;14.30;59.60;;;;;;5058440;28;20024;-78
2022/02/13 01:11:38;;;;;;;7.03;3.30;;;14.20;59.50;;;;;;5074993;28;20017;-78
2022/02/13 01:14:03;;;;;;;7.68;3.00;;;14.20;59.50;;;;;;5070547;28;20025;-78
2022/02/13 01:16:29;;;;;;;5.40;2.70;;;14.20;59.50;;;;;;5065255;28;20481;-78
2022/02/13 01:18:55;;;;;;;6.63;3.20;;;14.20;59.40;;;;;;5074008;28;20040;-78
2022/02/13 01:21:22;;;;;;;6.55;3.17;;;14.20;59.40;;;;;;5057220;28;20028;-78
2022/02/13 01:23:47;;;;;;;7.15;3.30;;;14.20;59.40;;;;;;5069795;28;20021;-78
2022/02/13 01:26:13;;;;;;;6.72;2.92;;;14.20;59.50;;;;;;5043216;28;20020;-78
2022/02/13 01:28:39;;;;;;;6.15;3.03;;;14.20;59.50;;;;;;5075389;28;20115;-76
2022/02/13 01:31:06;;;;;;;7.38;3.53;;;14.20;59.60;;;;;;5058742;28;20066;-78
2022/02/13 01:33:33;;;;;;;6.63;3.22;;;14.20;59.50;;;;;;5067190;28;20071;-78
2022/02/13 01:35:59;;;;;;;6.72;3.13;;;14.20;59.50;;;;;;5055043;28;20154;-78
2022/02/13 01:38:25;;;;;;;6.43;3.25;;;14.10;59.40;;;;;;5070717;28;20048;-78
2022/02/13 01:40:52;;;;;;;6.80;3.45;;;14.10;59.40;;;;;;5076525;28;20024;-78
2022/02/13 01:43:17;;;;;;;6.57;3.20;;;14.10;59.30;;;;;;5059023;28;20078;-79
2022/02/13 01:45:43;;;;;;;7.55;3.67;;;14.10;59.30;;;;;;5039846;28;20033;-78
2022/02/13 01:48:09;;;;;;;7.22;3.30;;;14.10;59.20;;;;;;5037455;28;20033;-78
2022/02/13 01:50:39;;;;;;;6.45;3.28;;;14.10;59.20;;;;;;5040864;28;20020;-78
2022/02/13 01:53:05;;;;;;;7.53;3.17;;;14.10;59.20;;;;;;5057104;28;20035;-78
2022/02/13 01:55:31;;;;;;;6.78;3.00;;;14.10;59.20;;;;;;5075555;28;20017;-78
2022/02/13 01:57:57;;;;;;;6.82;3.50;;;14.10;59.20;;;;;;5065349;28;20367;-77
2022/02/13 02:00:26;;;;;;;8.50;3.50;;;14.10;59.10;;;;;;5039044;28;20020;-77
2022/02/13 02:02:52;;;;;;;5.35;2.95;;;14.00;59.00;;;;;;5072849;28;20032;-78
2022/02/13 02:05:18;;;;;;;5.97;3.38;;;14.10;59.10;;;;;;5063636;28;20036;-78
2022/02/13 02:07:44;;;;;;;6.20;3.13;;;14.00;59.10;;;;;;5066000;28;20021;-77
2022/02/13 02:10:10;;;;;;;6.03;3.10;;;14.00;59.00;;;;;;5053077;28;20462;-77
2022/02/13 02:12:37;;;;;;;6.93;3.45;;;14.00;59.00;;;;;;5062396;28;20028;-78
2022/02/13 02:15:04;;;;;;;6.63;3.40;;;14.00;59.00;;;;;;5054221;28;20031;-78
2022/02/13 02:17:29;;;;;;;7.20;3.42;;;14.00;59.10;;;;;;5040244;28;20052;-77
2022/02/13 02:19:55;;;;;;;6.65;3.22;;;14.00;59.10;;;;;;5053269;28;20078;-77
2022/02/13 02:22:20;;;;;;;6.50;3.42;;;14.00;59.70;;;;;;5035277;28;20029;-78
2022/02/13 02:24:46;;;;;;;6.00;3.20;;;14.00;59.10;;;;;;5035164;28;20033;-77
2022/02/13 02:27:13;;;;;;;7.32;3.33;;;14.00;59.10;;;;;;5049270;28;20019;-78
2022/02/13 02:29:38;;;;;;;6.60;3.05;;;14.00;59.10;;;;;;5072736;28;20047;-77
2022/02/13 02:32:05;;;;;;;6.22;3.35;;;14.00;59.20;;;;;;5054603;28;20046;-78
2022/02/13 02:34:31;;;;;;;6.50;3.30;;;14.00;59.10;;;;;;5072964;28;20055;-78
2022/02/13 02:36:56;;;;;;;8.00;3.15;;;13.90;59.00;;;;;;5063126;28;20056;-78
2022/02/13 02:39:22;;;;;;;6.22;3.20;;;13.90;59.00;;;;;;5052788;28;20029;-77
2022/02/13 02:41:47;;;;;;;6.47;3.10;;;13.90;59.00;;;;;;5052805;28;20039;-77
2022/02/13 02:44:13;;;;;;;5.47;2.90;;;13.90;59.10;;;;;;5058835;28;20397;-78
2022/02/13 02:46:39;;;;;;;5.90;2.88;;;13.90;59.10;;;;;;5055080;28;20055;-78
2022/02/13 02:49:05;;;;;;;6.40;3.15;;;13.90;59.00;;;;;;5072672;28;20028;-78
2022/02/13 02:51:30;;;;;;;5.70;2.90;;;13.90;58.80;;;;;;5060815;28;20029;-77
2022/02/13 02:53:56;;;;;;;6.70;3.40;;;13.90;58.80;;;;;;5052611;28;20029;-77
2022/02/13 02:56:21;;;;;;;6.68;3.60;;;13.90;58.80;;;;;;5034863;28;20029;-77
2022/02/13 02:58:47;;;;;;;5.95;2.92;;;13.90;58.80;;;;;;5051688;28;20036;-76
2022/02/13 03:01:12;;;;;;;5.63;3.20;;;13.90;58.80;;;;;;5034791;28;20044;-78
2022/02/13 03:03:38;;;;;;;7.10;3.65;;;13.90;58.70;;;;;;5044073;28;20028;-77
2022/02/13 03:06:03;;;;;;;6.15;3.00;;;13.90;58.80;;;;;;5036269;28;20044;-78
2022/02/13 03:08:29;;;;;;;7.20;3.60;;;13.90;58.80;;;;;;5051624;28;20028;-76
2022/02/13 03:10:55;;;;;;;5.85;2.80;;;13.80;58.80;;;;;;5072172;28;20051;-78
2022/02/13 03:13:21;;;;;;;6.85;3.05;;;13.80;58.70;;;;;;5054256;28;20027;-78
2022/02/13 03:15:49;;;;;;;6.25;2.88;;;13.80;58.80;;;;;;5050913;28;20066;-78
2022/02/13 03:18:17;;;;;;;5.95;3.15;;;13.80;58.70;;;;;;5034734;28;20048;-78
2022/02/13 03:20:44;;;;;;;6.65;3.00;;;13.80;58.70;;;;;;5049369;28;20055;-78
2022/02/13 03:23:10;;;;;;;5.70;3.10;;;13.80;58.70;;;;;;5072671;28;20027;-78
2022/02/13 03:25:35;;;;;;;5.90;3.20;;;13.80;58.70;;;;;;5063174;28;20025;-78
2022/02/13 03:28:01;;;;;;;6.07;3.00;;;13.80;58.80;;;;;;5033932;28;20032;-78
2022/02/13 03:30:27;;;;;;;5.63;2.67;;;13.80;58.70;;;;;;5058282;23;20069;-78
2022/02/13 03:32:52;;;;;;;6.18;3.17;;;13.80;58.70;;;;;;5049834;28;20025;-77
2022/02/13 03:35:18;;;;;;;7.95;3.30;;;13.80;59.20;;;;;;5035795;28;20028;-78
2022/02/13 03:37:44;;;;;;;6.95;3.17;;;13.80;58.80;;;;;;5035677;28;20021;-77
2022/02/13 03:40:10;;;;;;;6.85;3.22;;;13.80;58.80;;;;;;5033821;28;20529;-77
2022/02/13 03:42:36;;;;;;;5.25;2.65;;;13.80;58.80;;;;;;5032634;28;20030;-75
2022/02/13 03:45:02;;;;;;;6.40;3.20;;;13.70;58.60;;;;;;5013273;28;20057;-75
2022/02/13 03:47:27;;;;;;;6.93;3.45;;;13.80;58.70;;;;;;5016817;28;20108;-75
2022/02/13 03:49:53;;;;;;;6.57;2.97;;;13.80;58.70;;;;;;5032561;28;20049;-75
2022/02/13 03:52:19;;;;;;;5.30;3.20;;;13.80;58.70;;;;;;5015804;28;20398;-75
2022/02/13 03:54:44;;;;;;;6.32;2.90;;;13.70;58.60;;;;;;5022144;28;20022;-75
2022/02/13 03:57:10;;;;;;;6.53;3.17;;;13.70;58.40;;;;;;5030658;28;20647;-75
2022/02/13 03:59:35;;;;;;;6.80;3.05;;;13.70;58.40;;;;;;5031526;28;20021;-75
2022/02/13 04:02:01;;;;;;;6.10;3.00;;;13.70;58.20;;;;;;5018080;28;20025;-76
2022/02/13 04:04:26;;;;;;;5.63;3.05;;;13.70;58.20;;;;;;5015114;28;20036;-76
2022/02/13 04:06:52;;;;;;;5.60;2.95;;;13.70;58.30;;;;;;5014951;28;20022;-75
2022/02/13 04:09:17;;;;;;;7.00;3.00;;;13.70;58.40;;;;;;5032626;28;20021;-76
2022/02/13 04:11:43;;;;;;;6.85;2.85;;;13.70;58.40;;;;;;5023994;28;20503;-77
2022/02/13 04:14:08;;;;;;;5.53;2.80;;;13.70;58.40;;;;;;5036060;28;20029;-76
2022/02/13 04:16:34;;;;;;;6.15;2.78;;;13.70;58.50;;;;;;5036388;28;20026;-76
2022/02/13 04:18:59;;;;;;;5.75;3.05;;;13.70;58.40;;;;;;5034926;28;20095;-76
2022/02/13 04:21:25;;;;;;;8.35;3.10;;;13.70;58.40;;;;;;5035777;28;20053;-75
2022/02/13 04:23:51;;;;;;;6.45;2.90;;;13.70;58.30;;;;;;5019863;28;20022;-75
2022/02/13 04:26:16;;;;;;;6.00;3.10;;;13.60;58.20;;;;;;5035030;28;20084;-75
2022/02/13 04:28:42;;;;;;;5.40;2.72;;;13.70;58.20;;;;;;5035585;28;20028;-75
2022/02/13 04:31:07;;;;;;;7.25;2.92;;;13.60;58.10;;;;;;5035695;28;20076;-76
2022/02/13 04:33:33;;;;;;;6.68;3.42;;;13.60;57.90;;;;;;5018050;28;20053;-76
2022/02/13 04:35:58;;;;;;;6.68;2.90;;;13.60;57.90;;;;;;5035653;28;20017;-76
2022/02/13 04:38:24;;;;;;;6.28;2.80;;;13.60;58.00;;;;;;5034354;28;20024;-76
2022/02/13 04:40:49;;;;;;;6.50;3.25;;;13.60;57.90;;;;;;5035236;28;20616;-75
2022/02/13 04:43:15;;;;;;;6.90;3.20;;;13.60;57.80;;;;;;5032851;28;20104;-76
2022/02/13 04:45:40;;;;;;;5.65;2.97;;;13.60;57.80;;;;;;5026024;28;20052;-76
2022/02/13 04:48:06;;;;;;;6.22;2.90;;;13.60;57.80;;;;;;5017918;28;20033;-76
2022/02/13 04:50:33;;;;;;;7.50;2.90;;;13.50;57.70;;;;;;5017674;28;20022;-75
2022/02/13 04:52:58;;;;;;;5.63;3.08;;;13.50;57.70;;;;;;5025402;28;20029;-76
2022/02/13 04:55:24;;;;;;;7.00;3.42;;;13.50;57.60;;;;;;5020831;28;20482;-76
2022/02/13 04:57:50;;;;;;;5.57;3.20;;;13.50;57.70;;;;;;5034357;28;20041;-75
2022/02/13 05:00:17;;;;;;;6.75;3.17;;;13.50;57.90;;;;;;5025888;28;20036;-78
2022/02/13 05:02:44;;;;;;;6.88;3.25;;;13.50;57.90;;;;;;5036178;28;20478;-77
2022/02/13 05:05:11;;;;;;;6.32;3.10;;;13.50;57.80;;;;;;5033710;28;20030;-77
2022/02/13 05:07:37;;;;;;;8.23;3.33;;;13.50;57.80;;;;;;5036075;28;20100;-78
2022/02/13 05:10:04;;;;;;;6.38;3.35;;;13.50;57.60;;;;;;5018426;28;20076;-77
2022/02/13 05:12:30;;;;;;;6.28;3.15;;;13.50;58.00;;;;;;5025074;28;20018;-77
2022/02/13 05:14:55;;;;;;;6.18;3.10;;;13.50;57.60;;;;;;5036620;28;20108;-77
2022/02/13 05:17:21;;;;;;;6.65;3.05;;;13.50;57.70;;;;;;5020646;28;20029;-77
2022/02/13 05:19:48;;;;;;;6.22;3.20;;;13.50;57.70;;;;;;5036361;28;20029;-77
2022/02/13 05:22:14;;;;;;;6.47;3.10;;;13.50;57.70;;;;;;5017698;28;20025;-77
2022/02/13 05:24:40;;;;;;;6.47;3.30;;;13.50;57.70;;;;;;5036406;28;20030;-77
2022/02/13 05:27:06;;;;;;;6.57;3.08;;;13.50;57.80;;;;;;5036190;28;20441;-77
2022/02/13 05:29:35;;;;;;;6.15;3.10;;;13.50;57.90;;;;;;5029998;28;20068;-77
2022/02/13 05:32:03;;;;;;;5.43;3.00;;;13.50;57.90;;;;;;5034757;28;20033;-77
2022/02/13 05:34:30;;;;;;;6.35;2.97;;;13.50;58.00;;;;;;5034586;28;20380;-77
2022/02/13 05:36:55;;;;;;;7.78;3.35;;;13.50;58.20;;;;;;5034476;28;20391;-77
2022/02/13 05:39:21;;;;;;;6.40;3.28;;;13.40;58.10;;;;;;5034259;28;20032;-77
2022/02/13 05:41:47;;;;;;;6.88;2.88;;;13.40;58.10;;;;;;5035267;28;20029;-77
2022/02/13 05:44:12;;;;;;;5.72;3.20;;;13.50;58.30;;;;;;5030472;28;20033;-77
2022/02/13 05:46:38;;;;;;;7.25;3.13;;;13.50;58.20;;;;;;5018087;28;20025;-77
2022/02/13 05:49:04;;;;;;;5.70;2.90;;;13.40;58.00;;;;;;5015791;28;20053;-77
2022/02/13 05:51:29;;;;;;;6.05;3.40;;;13.40;58.00;;;;;;5015549;28;20100;-77
2022/02/13 05:53:56;;;;;;;7.70;3.20;;;13.40;58.00;;;;;;4999836;28;20521;-78
2022/02/13 05:56:22;;;;;;;7.22;3.30;;;13.40;58.60;;;;;;5021034;28;20117;-77
2022/02/13 05:58:48;;;;;;;5.78;3.15;;;13.40;58.10;;;;;;5034983;28;20022;-77
2022/02/13 06:01:14;;;;;;;7.28;3.40;;;13.40;58.10;;;;;;5017368;28;20035;-77
2022/02/13 06:03:40;;;;;;;7.15;3.28;;;13.40;58.00;;;;;;5030687;28;20041;-75
2022/02/13 06:06:05;;;;;;;6.50;3.30;;;13.40;57.90;;;;;;5032595;28;20033;-75
2022/02/13 06:08:31;;;;;;;6.15;3.10;;;13.30;57.70;;;;;;5032711;28;20117;-76
2022/02/13 06:10:57;;;;;;;6.00;3.10;;;13.40;57.80;;;;;;5034132;28;20028;-76
2022/02/13 06:13:23;;;;;;;6.88;3.15;;;13.40;57.90;;;;;;5033656;28;20053;-76
2022/02/13 06:15:48;;;;;;;5.60;2.85;;;13.40;58.00;;;;;;5033754;28;20389;-76
2022/02/13 06:18:14;;;;;;;6.78;3.00;;;13.40;58.00;;;;;;5033726;28;20548;-75
2022/02/13 06:20:40;;;;;;;7.00;2.85;;;13.40;58.00;;;;;;5022143;28;20075;-76
2022/02/13 06:23:07;;;;;;;5.78;2.95;;;13.40;58.00;;;;;;5017250;28;20025;-75
2022/02/13 06:25:33;;;;;;;7.65;3.15;;;13.40;58.10;;;;;;5026489;28;20025;-78
2022/02/13 06:27:58;;;;;;;5.80;3.10;;;13.40;58.10;;;;;;5033621;28;20405;-76
2022/02/13 06:30:24;;;;;;;6.60;2.88;;;13.30;58.10;;;;;;5033392;28;20021;-75
2022/02/13 06:32:50;;;;;;;6.72;3.03;;;13.40;58.20;;;;;;5015664;28;20037;-75
2022/02/13 06:35:16;;;;;;;7.20;3.55;;;13.30;58.10;;;;;;5015541;28;20022;-76
2022/02/13 06:37:41;;;;;;;5.72;3.30;;;13.30;58.10;;;;;;5015741;28;20025;-76
2022/02/13 06:40:07;;;;;;;6.35;3.08;;;13.30;58.10;;;;;;5016949;28;20116;-76
2022/02/13 06:42:33;;;;;;;7.18;3.00;;;13.30;57.90;;;;;;5032122;28;20548;-76
2022/02/13 06:44:58;;;;;;;6.55;3.38;;;13.30;57.80;;;;;;5031983;28;20037;-77
2022/02/13 06:47:24;;;;;;;6.38;3.20;;;13.30;57.70;;;;;;5032237;28;20022;-76
2022/02/13 06:49:50;;;;;;;6.68;3.20;;;13.30;57.50;;;;;;5028547;28;20083;-76
2022/02/13 06:52:16;;;;;;;7.65;3.20;;;13.30;57.30;;;;;;5003080;28;20061;-77
2022/02/13 06:54:41;;;;;;;5.65;2.92;;;13.30;57.30;;;;;;5013218;28;20067;-76
2022/02/13 06:57:07;;;;;;;7.25;3.47;;;13.20;57.20;;;;;;4996104;28;20026;-76
2022/02/13 06:59:32;;;;;;;8.35;3.50;;;13.30;57.30;;;;;;4995580;28;20025;-75
2022/02/13 07:01:58;;;;;;;5.90;3.10;;;13.20;57.30;;;;;;4998132;28;20049;-76
2022/02/13 07:04:23;;;;;;;6.35;3.20;;;13.20;57.50;;;;;;5033336;28;20363;-75
2022/02/13 07:06:49;;;;;;;8.63;3.10;;;13.30;57.60;;;;;;5033120;28;20029;-76
2022/02/13 07:09:15;;;;;;;6.53;2.95;;;13.30;57.50;;;;;;5015214;28;20027;-77
2022/02/13 07:11:40;;;;;;;5.50;2.80;;;13.30;57.40;;;;;;5014287;28;20017;-76
2022/02/13 07:14:06;;;;;;;6.30;3.10;;;13.30;57.30;;;;;;5011348;28;20041;-76
2022/02/13 07:16:31;;;;;;;7.38;3.30;;;13.30;57.60;;;;;;5032603;28;20038;-76
2022/02/13 07:18:57;;;;;;;6.38;3.05;;;13.30;57.20;;;;;;5015238;28;20029;-77
2022/02/13 07:21:23;;;;;;;5.30;2.88;;;13.30;57.00;;;;;;5015588;28;20356;-76
2022/02/13 07:23:49;;;;;;;5.65;2.67;;;13.30;57.00;;;;;;5015153;28;20025;-76
2022/02/13 07:26:14;;;;;;;5.88;3.10;;;13.40;57.10;;;;;;5015534;28;20052;-76
2022/02/13 07:31:24;;;;;;;6.20;2.75;;;13.40;56.90;;;;;;5032946;28;20043;-76
2022/02/13 07:33:49;;;;;;;5.60;2.80;;;13.40;56.90;;;;;;5033292;28;20034;-76
2022/02/13 07:36:15;;;;;;;5.22;2.72;;;13.40;56.80;;;;;;5015235;28;20025;-77
2022/02/13 07:38:41;;;;;;;6.38;2.80;;;13.50;56.90;;;;;;5014233;28;20033;-78
2022/02/13 07:41:07;;;;;;;6.78;3.10;;;13.50;56.70;;;;;;5025138;28;20029;-77
2022/02/13 07:43:33;;;;;;;5.60;2.72;;;13.50;56.50;;;;;;5046352;28;20422;-76
2022/02/13 07:45:59;;;;;;;7.70;3.00;;;13.60;56.60;;;;;;5030722;28;20152;-76
2022/02/13 07:48:25;;;;;;;6.40;2.60;;;13.60;56.50;;;;;;5011041;28;20071;-78
2022/02/13 07:50:50;;;;;;;7.63;3.03;;;13.60;56.40;;;;;;5018592;28;20079;-77
2022/02/13 07:53:17;;;;;;;6.97;2.90;;;13.60;56.40;;;;;;5035777;28;20029;-77
2022/02/13 07:55:43;;;;;;;5.90;2.80;;;13.60;56.40;;;;;;5017785;28;20036;-77
2022/02/13 07:58:08;;;;;;;6.38;3.10;;;13.60;56.30;;;;;;5018356;28;20034;-76
2022/02/13 08:00:34;;;;;;;5.63;2.65;;;13.60;56.30;;;;;;5035845;28;20033;-77
2022/02/13 08:02:59;;;;;;;6.68;2.83;;;13.60;56.20;;;;;;5036620;28;20040;-77
2022/02/13 08:05:25;;;;;;;6.10;2.85;;;13.70;56.00;;;;;;5018689;28;20057;-77
2022/02/13 08:07:50;;;;;;;7.47;2.97;;;13.70;56.50;;;;;;5036831;28;20060;-77
2022/02/13 08:10:17;;;;;;;7.30;3.20;;;13.70;56.50;;;;;;5017433;28;20022;-77
2022/02/13 08:12:43;;;;;;;6.47;3.00;;;13.70;56.10;;;;;;5018215;28;20036;-76
2022/02/13 08:15:19;;;;;;;5.28;2.90;;;13.70;56.10;;;;;;5018129;28;20097;-77
2022/02/13 08:17:47;;;;;;;6.22;2.63;;;14.10;56.00;;;;;;5035095;28;20087;-76
2022/02/13 08:20:14;;;;;;;5.78;2.60;;;14.10;56.40;;;;;;5035978;28;20048;-77
2022/02/13 08:22:42;;;;;;;7.97;3.10;;;13.70;56.10;;;;;;5035947;28;20132;-78
2022/02/13 08:25:11;;;;;;;7.93;3.05;;;13.80;56.10;;;;;;5035498;28;20030;-76
2022/02/13 08:27:37;;;;;;;5.50;2.50;;;13.80;56.00;;;;;;5017526;28;20024;-77
2022/02/13 08:30:04;;;;;;;7.88;2.70;;;13.80;55.80;;;;;;5012267;28;20112;-76
2022/02/13 08:32:32;;;;;;;7.00;3.03;;;13.80;55.80;;;;;;5027573;28;20033;-77
2022/02/13 08:35:01;;;;;;;5.97;2.60;;;13.90;55.70;;;;;;5021928;28;20041;-76
2022/02/13 08:37:40;;;;;;;7.03;2.80;;;13.80;55.50;;;;;;5019854;28;20026;-76
2022/02/13 08:40:07;;;;;;;6.07;2.80;;;13.90;55.50;;;;;;5015036;28;20041;-76
2022/02/13 08:42:32;;;;;;;8.13;3.30;;;14.00;55.40;;;;;;5007292;28;20029;-75
2022/02/13 08:44:58;;;;;;;6.13;2.80;;;13.90;55.30;;;;;;4998430;28;20657;-78
2022/02/13 08:47:24;;;;;;;6.10;2.85;;;14.00;55.30;;;;;;5030700;28;20029;-77
2022/02/13 08:49:55;;;;;;;5.95;3.00;;;13.90;55.20;;;;;;5009820;28;20032;-77
2022/02/13 08:52:24;;;;;;;5.55;2.53;;;14.00;55.10;;;;;;5034637;28;20128;-78
2022/02/13 08:54:55;;;;;;;5.60;2.97;;;15.50;55.70;;;;;;5033997;28;20152;-77
2022/02/13 08:57:26;;;;;;;6.20;3.30;;;14.10;54.70;;;;;;5023243;28;20120;-79
2022/02/13 09:00:06;;;;;;;7.05;3.10;;;14.10;54.70;;;;;;5024114;28;20114;-77
2022/02/13 09:02:42;;;;;;;9.32;3.22;;;14.20;54.60;;;;;;5014422;28;20510;-76
2022/02/13 09:05:11;;;;;;;8.00;3.35;;;14.50;54.50;;;;;;5033922;28;20084;-78
2022/02/13 09:07:44;;;;;;;7.07;3.28;;;14.20;54.60;;;;;;5032645;28;20140;-77
2022/02/13 09:10:13;;;;;;;6.78;3.33;;;14.30;54.50;;;;;;5023066;28;20026;-77
2022/02/13 09:12:40;;;;;;;7.60;3.25;;;14.30;54.50;;;;;;5032062;28;20028;-78
2022/02/13 09:15:07;;;;;;;6.30;2.83;;;14.20;54.10;;;;;;5020317;28;20030;-77
2022/02/13 09:17:33;;;;;;;7.47;3.28;;;14.30;54.20;;;;;;5028500;28;20099;-79
2022/02/13 09:19:58;;;;;;;6.35;3.15;;;14.30;54.10;;;;;;5016454;28;20421;-77
2022/02/13 09:22:27;;;;;;;6.93;3.38;;;14.30;54.20;;;;;;5034873;28;20065;-78
2022/02/13 09:24:52;;;;;;;7.70;3.17;;;14.30;54.30;;;;;;5034505;28;20017;-79
2022/02/13 09:27:18;;;;;;;8.40;3.55;;;14.30;54.50;;;;;;5035013;28;20025;-78
2022/02/13 09:29:44;;;;;;;5.90;3.10;;;14.30;54.40;;;;;;5029136;28;20033;-78
2022/02/13 09:32:10;;;;;;;6.78;3.00;;;14.30;54.40;;;;;;5033208;28;20021;-77
2022/02/13 09:34:36;;;;;;;7.03;3.42;;;14.30;54.30;;;;;;5032128;28;20773;-75
2022/02/13 09:37:01;;;;;;;7.00;3.85;;;14.30;54.30;;;;;;5032177;28;20061;-76
2022/02/13 09:39:27;;;;;;;6.88;3.40;;;14.30;54.30;;;;;;5031506;28;20021;-76
2022/02/13 09:41:53;;;;;;;6.68;3.05;;;14.30;54.10;;;;;;5031988;28;20041;-76
2022/02/13 09:44:20;;;;;;;6.35;3.05;;;14.40;54.30;;;;;;5028339;28;20082;-78
2022/02/13 09:46:45;;;;;;;6.32;3.10;;;14.40;54.00;;;;;;5016674;28;20113;-77
2022/02/13 09:49:12;;;;;;;6.82;3.30;;;14.40;54.20;;;;;;5033886;28;20072;-76
2022/02/13 09:51:37;;;;;;;7.22;3.50;;;14.40;54.20;;;;;;5032961;28;20017;-77
2022/02/13 09:54:05;;;;;;;8.43;3.75;;;14.40;54.40;;;;;;5033049;28;20128;-77
2022/02/13 09:56:31;;;;;;;8.13;3.38;;;14.30;54.30;;;;;;5015870;28;20504;-77
2022/02/13 09:58:57;;;;;;;8.60;3.70;;;14.20;54.40;;;;;;5015992;28;20032;-77
2022/02/13 10:01:45;;;;;;;9.48;3.28;;;14.20;54.00;;;;;;5034306;28;20037;-76
2022/02/13 10:04:12;;;;;;;8.55;3.42;;;14.10;53.80;;;;;;5035324;28;20489;-76
2022/02/13 10:06:38;;;;;;;8.00;3.45;;;14.10;54.20;;;;;;5019136;28;20056;-77
2022/02/13 10:09:06;;;;;;;8.40;3.83;;;14.20;54.00;;;;;;5031509;28;20030;-77
2022/02/13 10:11:37;;;;;;;7.13;3.10;;;14.10;54.10;;;;;;5014300;28;20494;-76
2022/02/13 10:14:10;;;;;;;7.72;3.13;;;14.10;54.10;;;;;;5031797;28;20095;-77
2022/02/13 10:16:45;;;;;;;9.15;3.88;;;14.20;54.30;;;;;;5007448;28;20037;-76
2022/02/13 10:19:15;;;;;;;7.60;3.65;;;14.10;54.40;;;;;;5009468;28;20030;-77
2022/02/13 10:21:50;;;;;;;8.93;3.67;;;14.20;54.60;;;;;;5013090;28;20063;-77
2022/02/13 10:24:37;;;;;;;7.97;3.35;;;14.20;54.60;;;;;;5030596;28;20040;-77
2022/02/13 10:27:07;;;;;;;6.55;3.58;;;14.10;54.80;;;;;;5017967;28;20120;-77
2022/02/13 10:29:36;;;;;;;7.63;3.50;;;14.20;55.10;;;;;;5019300;28;20063;-77
2022/02/13 10:32:11;;;;;;;7.47;3.13;;;14.10;55.30;;;;;;5025070;28;20025;-77
2022/02/13 10:34:37;;;;;;;7.47;3.80;;;14.10;55.30;;;;;;5032515;28;20029;-78
2022/02/13 10:37:03;;;;;;;7.78;3.47;;;14.10;55.60;;;;;;5015251;28;20036;-77
2022/02/13 10:39:29;;;;;;;6.38;3.30;;;14.10;55.60;;;;;;5020085;28;20026;-76
2022/02/13 10:41:55;;;;;;;7.25;3.42;;;14.10;55.60;;;;;;5027168;28;20057;-77
2022/02/13 10:44:26;;;;;;;6.05;3.67;;;14.10;55.40;;;;;;5003624;28;20072;-78
2022/02/13 10:46:52;;;;;;;6.10;3.28;;;14.10;55.40;;;;;;4995413;28;20049;-78
2022/02/13 10:49:18;;;;;;;8.77;3.50;;;14.10;55.60;;;;;;4994833;28;20032;-79
2022/02/13 10:51:44;;;;;;;7.72;3.25;;;14.10;55.70;;;;;;5023159;28;20050;-76
2022/02/13 10:54:10;;;;;;;7.15;3.60;;;14.10;55.50;;;;;;5014603;28;20025;-78
2022/02/13 10:56:37;;;;;;;7.05;3.47;;;14.00;54.10;;;;;;5001004;28;20112;-77
2022/02/13 10:59:11;;;;;;;7.53;3.50;;;14.00;54.20;;;;;;5020856;28;20029;-77
2022/02/13 11:01:38;;;;;;;7.15;3.20;;;13.90;54.40;;;;;;5008706;28;20112;-77
2022/02/13 11:04:04;;;;;;;7.07;3.28;;;13.90;55.20;;;;;;5030877;28;20029;-77
2022/02/13 11:06:37;;;;;;;6.60;3.20;;;13.90;55.60;;;;;;5030724;28;20021;-77
2022/02/13 11:09:20;;;;;;;8.13;3.42;;;13.90;55.80;;;;;;5006685;28;20061;-78
2022/02/13 11:11:48;;;;;;;6.95;3.03;;;13.90;56.40;;;;;;5007689;28;20033;-77
2022/02/13 11:14:30;;;;;;;7.30;3.65;;;13.90;56.00;;;;;;5010740;28;20030;-75
2022/02/13 11:16:57;;;;;;;5.75;3.30;;;13.90;56.10;;;;;;5006976;28;20413;-77
2022/02/13 11:19:24;;;;;;;6.20;3.53;;;13.90;56.00;;;;;;5004540;28;21041;-76
2022/02/13 11:21:50;;;;;;;5.82;3.17;;;14.00;56.10;;;;;;5021322;28;20026;-76
2022/02/13 11:24:28;;;;;;;5.80;3.33;;;14.00;56.20;;;;;;5028608;28;20044;-76
2022/02/13 11:26:59;;;;;;;7.75;3.38;;;14.00;56.20;;;;;;5011185;28;20053;-77
2022/02/13 11:29:54;;;;;;;6.20;3.47;;;14.00;56.10;;;;;;5010772;28;20080;-78
2022/02/13 11:32:36;;;;;;;5.88;3.10;;;14.00;56.20;;;;;;5009272;28;20034;-77
2022/02/13 11:35:03;;;;;;;6.00;3.15;;;14.00;56.30;;;;;;5010581;28;20048;-76
2022/02/13 11:37:46;;;;;;;5.55;3.10;;;14.00;56.20;;;;;;5031340;28;20017;-76
2022/02/13 11:40:33;;;;;;;8.20;3.50;;;14.00;56.20;;;;;;5015275;28;20041;-79
2022/02/13 11:43:00;;;;;;;6.65;3.35;;;13.90;53.30;;;;;;5028240;28;20021;-78
2022/02/13 11:45:26;;;;;;;6.20;3.13;;;13.80;49.60;;;;;;5028509;28;20087;-78
2022/02/13 11:47:52;;;;;;;9.88;3.65;;;13.70;47.70;;;;;;5025875;28;20018;-77
2022/02/13 11:50:21;;;;;;;9.77;3.63;;;13.60;47.50;;;;;;5010794;28;20040;-78
2022/02/13 11:52:58;;;;;;;9.52;3.58;;;13.60;48.20;;;;;;5011254;28;20033;-76
2022/02/13 11:55:26;;;;;;;7.90;3.42;;;13.60;46.70;;;;;;5011326;28;20266;-79
2022/02/13 11:57:54;;;;;;;6.18;3.17;;;13.60;45.80;;;;;;5029158;28;20025;-78
2022/02/13 12:00:38;;;;;;;6.35;3.17;;;13.50;45.50;;;;;;5011038;28;20049;-76
2022/02/13 12:03:15;;;;;;;7.43;3.40;;;13.50;45.50;;;;;;5028380;28;20048;-78
2022/02/13 12:05:41;;;;;;;6.13;2.90;;;13.50;44.90;;;;;;5018184;28;20525;-76
2022/02/13 12:08:06;;;;;;;8.00;3.10;;;13.40;44.80;;;;;;5028993;28;20029;-77
2022/02/13 12:10:46;;;;;;;6.93;3.08;;;13.40;44.90;;;;;;5028578;28;20033;-76
2022/02/13 12:13:17;;;;;;;7.47;3.30;;;13.40;44.90;;;;;;5011002;28;20049;-78
2022/02/13 12:15:53;;;;;;;7.40;2.97;;;13.40;45.60;;;;;;5046047;28;20116;-77
2022/02/13 12:18:19;;;;;;;6.70;3.10;;;13.40;44.90;;;;;;5030473;28;20033;-76
2022/02/13 12:20:45;;;;;;;6.18;3.30;;;13.40;45.40;;;;;;5048228;28;20397;-78
2022/02/13 12:23:16;;;;;;;5.68;2.90;;;13.40;45.20;;;;;;5029518;28;20029;-77
2022/02/13 12:25:43;;;;;;;6.13;3.20;;;13.40;44.70;;;;;;5028217;28;20489;-77
2022/02/13 12:28:13;;;;;;;5.35;2.88;;;13.40;45.20;;;;;;5028817;28;20058;-78
2022/02/13 12:30:53;;;;;;;6.45;3.00;;;13.40;45.50;;;;;;5010961;28;20037;-76
2022/02/13 12:33:22;;;;;;;8.63;3.20;;;13.40;45.10;;;;;;5031393;28;20100;-76
2022/02/13 12:35:49;;;;;;;6.00;2.70;;;13.40;45.90;;;;;;5014564;28;20034;-76
2022/02/13 12:38:15;;;;;;;6.47;3.00;;;13.40;47.20;;;;;;5014009;28;20025;-75
2022/02/13 12:40:44;;;;;;;6.88;2.90;;;13.50;48.70;;;;;;5031538;28;20034;-76
2022/02/13 12:43:14;;;;;;;6.63;2.65;;;13.50;49.70;;;;;;5031851;28;20025;-77
2022/02/13 12:45:41;;;;;;;8.18;3.08;;;13.60;50.80;;;;;;5013666;28;20088;-77
2022/02/13 12:48:10;;;;;;;8.73;3.40;;;13.60;51.10;;;;;;5014265;28;20036;-76
2022/02/13 12:50:40;;;;;;;6.57;3.13;;;13.70;51.70;;;;;;5013494;28;20022;-76